Time;durP1;ratioP1;P1;durP2;ratioP2;P2;SDS_P1;SDS_P2;PMS_P1;PMS_P2;Temp;Humidity;BMP_temperature;BMP_pressure;BME280_temperature;BME280_humidity;BME280_pressure;Samples;Min_cycle;Max_cycle;Signal;HPM_P1;HPM_P2
2021/04/29 00:01:26;;;;;;;8.00;6.77;;;;;;;;;;5075488;28;20412;-79
2021/04/29 00:03:52;;;;;;;7.63;6.90;;;;;;;;;;5075424;28;20441;-80
2021/04/29 00:06:18;;;;;;;10.80;7.80;;;;;;;;;;5075517;28;20713;-76
2021/04/29 00:08:44;;;;;;;9.07;7.87;;;;;;;;;;5075274;28;20402;-77
2021/04/29 00:11:11;;;;;;;10.97;8.73;;;;;;;;;;5075048;28;20465;-75
2021/04/29 00:16:40;;;;;;;7.73;6.83;;;;;;;;;;5075181;28;20459;-75
2021/04/29 00:19:07;;;;;;;8.67;6.97;;;;;;;;;;5075152;28;20406;-77
2021/04/29 00:21:33;;;;;;;8.87;8.07;;;;;;;;;;5075011;28;20489;-75
2021/04/29 00:23:59;;;;;;;7.83;7.13;;;;;;;;;;5074923;28;20598;-75
2021/04/29 00:26:25;;;;;;;8.17;7.37;;;;;;;;;;5075123;28;20769;-80
2021/04/29 00:31:55;;;;;;;7.90;7.20;;;;;;;;;;5074930;28;20432;-76
2021/04/29 00:34:20;;;;;;;8.17;7.33;;;;;;;;;;5073566;28;20434;-82
2021/04/29 00:36:47;;;;;;;9.00;7.57;;;;;;;;;;5074665;28;20422;-80
2021/04/29 00:39:13;;;;;;;10.43;9.43;;;;;;;;;;5075226;28;20434;-81
2021/04/29 00:41:39;;;;;;;8.37;7.67;;;;;;;;;;5075219;28;20789;-78
2021/04/29 00:44:05;;;;;;;11.17;8.50;;;;;;;;;;5075254;28;20469;-77
2021/04/29 00:46:31;;;;;;;9.20;8.30;;;;;;;;;;5077676;28;20409;-76
2021/04/29 00:48:57;;;;;;;9.43;7.03;;;;;;;;;;5086708;28;20485;-75
2021/04/29 00:51:24;;;;;;;8.17;7.37;;;;;;;;;;5074679;28;20437;-77
2021/04/29 00:53:52;;;;;;;8.30;7.50;;;;;;;;;;5073979;28;20424;-80
2021/04/29 00:56:20;;;;;;;7.90;7.10;;;;;;;;;;5073311;28;20437;-79
2021/04/29 01:01:58;;;;;;;6.73;6.07;;;;;;;;;;5074742;28;20456;-81
2021/04/29 01:04:26;;;;;;;12.30;8.50;;;;;;;;;;5073516;28;20501;-78
2021/04/29 01:06:59;;;;;;;6.27;5.67;;;;;;;;;;5074145;28;20411;-75
2021/04/29 01:09:31;;;;;;;6.83;6.20;;;;;;;;;;5073973;28;20425;-75
2021/04/29 01:12:01;;;;;;;7.50;5.80;;;;;;;;;;5074029;28;20469;-80
2021/04/29 01:14:28;;;;;;;6.27;5.67;;;;;;;;;;5074122;28;20425;-83
2021/04/29 01:16:55;;;;;;;6.57;5.87;;;;;;;;;;5073707;28;20409;-83
2021/04/29 01:19:23;;;;;;;5.63;5.07;;;;;;;;;;5074468;28;20709;-74
2021/04/29 01:21:49;;;;;;;5.90;5.40;;;;;;;;;;5074303;28;20409;-75
2021/04/29 01:24:25;;;;;;;5.23;4.73;;;;;;;;;;5072990;28;20487;-79
2021/04/29 01:32:58;;;;;;;3.60;3.30;;;;;;;;;;5073826;28;20478;-81
2021/04/29 01:35:24;;;;;;;6.30;3.10;;;;;;;;;;5073520;28;20410;-76
2021/04/29 01:37:51;;;;;;;2.80;2.60;;;;;;;;;;5073418;28;20555;-77
2021/04/29 01:40:17;;;;;;;3.23;2.93;;;;;;;;;;5073871;28;20543;-78
2021/04/29 01:42:43;;;;;;;2.40;2.20;;;;;;;;;;5073881;28;20417;-80
2021/04/29 01:45:10;;;;;;;2.57;2.37;;;;;;;;;;5073537;28;20469;-78
2021/04/29 01:47:36;;;;;;;3.30;2.83;;;;;;;;;;5073327;28;20773;-80
2021/04/29 01:50:04;;;;;;;2.80;2.60;;;;;;;;;;5073553;28;20412;-75
2021/04/29 01:52:30;;;;;;;2.63;2.23;;;;;;;;;;5071912;28;20512;-78
2021/04/29 01:54:56;;;;;;;3.90;2.53;;;;;;;;;;5073440;28;20472;-78
2021/04/29 01:57:23;;;;;;;2.80;2.60;;;;;;;;;;5073298;28;20413;-75
2021/04/29 01:59:48;;;;;;;3.27;2.17;;;;;;;;;;5073187;28;20450;-77
2021/04/29 02:02:15;;;;;;;3.70;2.77;;;;;;;;;;5073322;28;20433;-78
2021/04/29 02:04:40;;;;;;;2.37;2.17;;;;;;;;;;5073099;28;20469;-79
2021/04/29 02:07:07;;;;;;;2.73;2.53;;;;;;;;;;5071998;28;20495;-76
2021/04/29 02:09:33;;;;;;;2.83;2.63;;;;;;;;;;5073172;28;20440;-74
2021/04/29 02:12:00;;;;;;;2.70;2.50;;;;;;;;;;5072947;28;20465;-75
2021/04/29 02:17:35;;;;;;;3.40;2.50;;;;;;;;;;5072902;28;20929;-78
2021/04/29 02:20:05;;;;;;;2.33;1.70;;;;;;;;;;5072501;28;20401;-77
2021/04/29 02:22:31;;;;;;;2.23;2.03;;;;;;;;;;5072602;28;20483;-74
2021/04/29 02:24:58;;;;;;;2.00;1.90;;;;;;;;;;5072899;28;20558;-81
2021/04/29 02:27:24;;;;;;;1.60;1.50;;;;;;;;;;5072337;28;20793;-78
2021/04/29 02:29:50;;;;;;;1.73;1.63;;;;;;;;;;5072707;28;20414;-74
2021/04/29 02:32:17;;;;;;;2.93;1.60;;;;;;;;;;5072731;28;20453;-78
2021/04/29 02:34:43;;;;;;;1.60;1.50;;;;;;;;;;5072792;28;20416;-78
2021/04/29 02:37:10;;;;;;;1.57;1.47;;;;;;;;;;5072566;28;20402;-78
2021/04/29 02:39:36;;;;;;;1.73;1.63;;;;;;;;;;5072931;28;20462;-74
2021/04/29 02:42:02;;;;;;;2.07;1.87;;;;;;;;;;5072665;28;20417;-77
2021/04/29 02:47:32;;;;;;;1.97;1.10;;;;;;;;;;5076342;28;20447;-81
2021/04/29 02:49:58;;;;;;;1.20;1.10;;;;;;;;;;5087283;28;20413;-74
2021/04/29 02:52:24;;;;;;;1.70;1.20;;;;;;;;;;5074872;28;20456;-79
2021/04/29 02:54:50;;;;;;;2.53;1.00;;;;;;;;;;5073337;28;20504;-80
2021/04/29 02:57:20;;;;;;;1.70;1.07;;;;;;;;;;5072890;28;20844;-79
2021/04/29 03:02:49;;;;;;;2.37;1.37;;;;;;;;;;5072553;28;20420;-74
2021/04/29 03:05:15;;;;;;;0.83;0.73;;;;;;;;;;5072588;28;20467;-79
2021/04/29 03:07:42;;;;;;;1.43;1.33;;;;;;;;;;5071773;28;20428;-81
2021/04/29 03:10:10;;;;;;;1.20;0.90;;;;;;;;;;5072284;28;20532;-76
2021/04/29 03:12:36;;;;;;;1.50;1.20;;;;;;;;;;5072555;28;20504;-79
2021/04/29 03:15:02;;;;;;;1.80;1.30;;;;;;;;;;5072310;28;20877;-74
2021/04/29 03:17:28;;;;;;;1.60;1.20;;;;;;;;;;5072404;28;20879;-79
2021/04/29 03:19:54;;;;;;;1.57;1.33;;;;;;;;;;5072376;28;20417;-77
2021/04/29 03:22:20;;;;;;;1.90;1.17;;;;;;;;;;5072290;28;20401;-82
2021/04/29 03:24:48;;;;;;;1.30;1.20;;;;;;;;;;5072253;28;20476;-80
2021/04/29 03:27:14;;;;;;;1.10;0.80;;;;;;;;;;5072418;28;20504;-77
2021/04/29 03:32:43;;;;;;;1.10;1.00;;;;;;;;;;5072254;28;20413;-74
2021/04/29 03:35:09;;;;;;;0.90;0.90;;;;;;;;;;5072484;28;20421;-75
2021/04/29 03:37:35;;;;;;;0.77;0.77;;;;;;;;;;5072114;28;20504;-75
2021/04/29 03:40:01;;;;;;;2.20;1.17;;;;;;;;;;5074492;28;20497;-79
2021/04/29 03:42:28;;;;;;;1.07;0.97;;;;;;;;;;5075999;28;20419;-74
2021/04/29 03:47:57;;;;;;;0.80;0.80;;;;;;;;;;5075650;28;20501;-76
2021/04/29 03:50:23;;;;;;;0.77;0.77;;;;;;;;;;5075917;28;20469;-77
2021/04/29 03:52:49;;;;;;;0.90;0.90;;;;;;;;;;5075634;28;20409;-75
2021/04/29 03:55:15;;;;;;;2.00;1.50;;;;;;;;;;5075825;28;20410;-80
2021/04/29 03:57:41;;;;;;;0.60;0.60;;;;;;;;;;5075709;28;20414;-82
2021/04/29 04:03:11;;;;;;;0.70;0.70;;;;;;;;;;5075549;28;20467;-77
2021/04/29 04:05:37;;;;;;;1.53;0.70;;;;;;;;;;5075478;28;20515;-75
2021/04/29 04:08:03;;;;;;;0.60;0.50;;;;;;;;;;5075164;28;20504;-76
2021/04/29 04:10:29;;;;;;;0.70;0.47;;;;;;;;;;5077699;28;20469;-78
2021/04/29 04:12:55;;;;;;;0.60;0.60;;;;;;;;;;5074592;28;20764;-76
2021/04/29 04:15:21;;;;;;;0.50;0.50;;;;;;;;;;5075452;28;20439;-74
2021/04/29 04:17:47;;;;;;;1.13;0.50;;;;;;;;;;5075459;28;20551;-78
2021/04/29 04:20:13;;;;;;;0.60;0.50;;;;;;;;;;5075395;28;20520;-83
2021/04/29 04:22:39;;;;;;;1.20;0.90;;;;;;;;;;5074954;28;20421;-76
2021/04/29 04:25:05;;;;;;;1.37;1.23;;;;;;;;;;5075129;28;20483;-74
2021/04/29 04:27:31;;;;;;;1.10;0.80;;;;;;;;;;5075263;28;20918;-74
2021/04/29 04:33:01;;;;;;;1.23;1.03;;;;;;;;;;5075062;28;20420;-74
2021/04/29 04:35:27;;;;;;;1.70;1.40;;;;;;;;;;5075320;28;20412;-83
2021/04/29 04:37:53;;;;;;;1.07;1.00;;;;;;;;;;5075261;28;20414;-77
2021/04/29 04:40:19;;;;;;;1.37;1.00;;;;;;;;;;5074986;28;20817;-76
2021/04/29 04:42:45;;;;;;;2.20;0.80;;;;;;;;;;5073722;28;20825;-74
2021/04/29 04:48:15;;;;;;;1.53;1.13;;;;;;;;;;5079628;28;20414;-76
2021/04/29 04:50:41;;;;;;;3.03;1.57;;;;;;;;;;5085337;28;20412;-75
2021/04/29 04:53:07;;;;;;;1.67;1.50;;;;;;;;;;5076883;28;20419;-78
2021/04/29 04:55:41;;;;;;;1.80;1.50;;;;;;;;;;5073626;28;20436;-75
2021/04/29 04:58:07;;;;;;;3.80;1.47;;;;;;;;;;5075144;28;20485;-77
2021/04/29 05:00:33;;;;;;;1.93;1.53;;;;;;;;;;5076807;28;20425;-80
2021/04/29 05:02:59;;;;;;;2.87;1.43;;;;;;;;;;5077118;28;20421;-75
2021/04/29 05:05:25;;;;;;;2.60;1.70;;;;;;;;;;5074916;28;20472;-78
2021/04/29 05:07:51;;;;;;;1.57;1.40;;;;;;;;;;5074036;28;20412;-74
2021/04/29 05:10:17;;;;;;;1.93;1.83;;;;;;;;;;5074506;28;20473;-76
2021/04/29 05:12:43;;;;;;;1.50;1.37;;;;;;;;;;5074718;28;20762;-75
2021/04/29 05:18:13;;;;;;;1.63;1.53;;;;;;;;;;5074298;28;20802;-79
2021/04/29 05:20:39;;;;;;;1.77;1.67;;;;;;;;;;5074256;28;20413;-77
2021/04/29 05:23:05;;;;;;;2.20;2.00;;;;;;;;;;5074085;28;20431;-74
2021/04/29 05:25:31;;;;;;;3.83;2.27;;;;;;;;;;5074241;28;20974;-75
2021/04/29 05:28:01;;;;;;;3.00;2.07;;;;;;;;;;5074566;28;20416;-83
2021/04/29 05:33:30;;;;;;;2.90;2.03;;;;;;;;;;5074238;28;20428;-78
2021/04/29 05:35:56;;;;;;;2.43;2.10;;;;;;;;;;5074710;28;20473;-78
2021/04/29 05:38:22;;;;;;;4.43;2.30;;;;;;;;;;5073892;28;20454;-81
2021/04/29 05:40:48;;;;;;;3.70;2.67;;;;;;;;;;5074018;28;20910;-75
2021/04/29 05:43:14;;;;;;;2.33;2.13;;;;;;;;;;5073825;28;20443;-76
2021/04/29 05:48:44;;;;;;;3.00;2.13;;;;;;;;;;5072393;28;20907;-74
2021/04/29 05:51:10;;;;;;;4.70;2.70;;;;;;;;;;5072373;28;20415;-74
2021/04/29 05:53:36;;;;;;;4.70;2.63;;;;;;;;;;5072271;28;20447;-79
2021/04/29 05:56:02;;;;;;;2.57;2.37;;;;;;;;;;5072797;28;20507;-73
2021/04/29 05:58:28;;;;;;;3.23;2.70;;;;;;;;;;5072849;28;20448;-75
2021/04/29 06:03:57;;;;;;;2.70;2.50;;;;;;;;;;5072116;28;20509;-75
2021/04/29 06:06:23;;;;;;;2.67;2.47;;;;;;;;;;5072881;28;20429;-74
2021/04/29 06:08:50;;;;;;;2.87;2.50;;;;;;;;;;5072554;28;20442;-77
2021/04/29 06:11:17;;;;;;;6.70;2.40;;;;;;;;;;5072853;28;20481;-73
2021/04/29 06:13:44;;;;;;;2.33;2.17;;;;;;;;;;5073680;28;20427;-74
2021/04/29 06:16:11;;;;;;;3.60;2.57;;;;;;;;;;5072978;28;20756;-74
2021/04/29 06:18:37;;;;;;;2.97;2.67;;;;;;;;;;5072737;28;20957;-74
2021/04/29 06:21:03;;;;;;;2.60;2.40;;;;;;;;;;5072784;28;20501;-75
2021/04/29 06:23:29;;;;;;;3.10;2.73;;;;;;;;;;5072569;28;20517;-75
2021/04/29 06:25:55;;;;;;;3.10;2.20;;;;;;;;;;5072866;28;20428;-79
2021/04/29 06:28:21;;;;;;;2.73;2.43;;;;;;;;;;5072444;28;20926;-78
2021/04/29 06:33:50;;;;;;;3.27;2.93;;;;;;;;;;5072558;28;20415;-76
2021/04/29 06:36:16;;;;;;;3.20;2.90;;;;;;;;;;5072257;28;20512;-76
2021/04/29 06:38:42;;;;;;;6.03;3.10;;;;;;;;;;5072064;28;20408;-74
2021/04/29 06:41:08;;;;;;;5.00;3.27;;;;;;;;;;5072659;28;20934;-80
2021/04/29 06:43:34;;;;;;;4.23;3.07;;;;;;;;;;5072578;28;20416;-75
2021/04/29 06:49:04;;;;;;;3.40;2.77;;;;;;;;;;5075623;28;20420;-77
2021/04/29 06:51:30;;;;;;;2.87;2.67;;;;;;;;;;5078884;28;20410;-74
2021/04/29 06:53:56;;;;;;;5.37;3.07;;;;;;;;;;5072730;28;21007;-77
2021/04/29 06:56:21;;;;;;;3.20;2.90;;;;;;;;;;5072501;28;20429;-74
2021/04/29 06:58:47;;;;;;;3.40;3.10;;;;;;;;;;5071737;28;20449;-79
2021/04/29 07:04:17;;;;;;;3.57;3.27;;;;;;;;;;5071463;28;20503;-75
2021/04/29 07:06:43;;;;;;;4.60;4.17;;;;;;;;;;5070869;28;20871;-78
2021/04/29 07:09:09;;;;;;;5.00;3.67;;;;;;;;;;5071457;28;20459;-80
2021/04/29 07:11:35;;;;;;;7.87;3.90;;;;;;;;;;5070798;28;20473;-81
2021/04/29 07:14:01;;;;;;;3.63;3.33;;;;;;;;;;5072059;28;20414;-83
2021/04/29 07:19:31;;;;;;;5.00;4.50;;;;;;;;;;5075679;28;20922;-85
2021/04/29 07:21:57;;;;;;;6.00;5.07;;;;;;;;;;5075933;28;20406;-84
2021/04/29 07:24:23;;;;;;;6.43;4.43;;;;;;;;;;5075915;28;20534;-81
2021/04/29 07:26:49;;;;;;;4.43;4.00;;;;;;;;;;5075624;28;20835;-83
2021/04/29 07:29:15;;;;;;;4.47;4.03;;;;;;;;;;5075565;28;20428;-83
2021/04/29 07:34:44;;;;;;;9.53;5.63;;;;;;;;;;5078653;28;20956;-87
2021/04/29 07:37:10;;;;;;;5.10;4.60;;;;;;;;;;5076761;28;20452;-87
2021/04/29 07:39:36;;;;;;;6.57;5.10;;;;;;;;;;5075208;28;20414;-84
2021/04/29 07:42:02;;;;;;;8.40;5.97;;;;;;;;;;5074665;28;20421;-81
2021/04/29 07:44:28;;;;;;;8.90;6.03;;;;;;;;;;5074817;28;20456;-83
2021/04/29 07:49:58;;;;;;;5.23;4.70;;;;;;;;;;5074492;28;20452;-84
2021/04/29 07:52:24;;;;;;;8.80;6.30;;;;;;;;;;5074368;28;20776;-82
2021/04/29 07:54:50;;;;;;;9.40;5.87;;;;;;;;;;5074850;28;20407;-82
2021/04/29 07:57:16;;;;;;;7.53;6.43;;;;;;;;;;5074578;28;20410;-83
2021/04/29 07:59:42;;;;;;;7.13;5.37;;;;;;;;;;5074255;28;20422;-83
2021/04/29 08:02:08;;;;;;;7.93;6.50;;;;;;;;;;5074128;28;20414;-79
2021/04/29 08:04:34;;;;;;;8.63;5.87;;;;;;;;;;5072802;28;20623;-83
2021/04/29 08:07:00;;;;;;;6.10;5.50;;;;;;;;;;5074316;28;20814;-84
2021/04/29 08:09:26;;;;;;;5.80;5.30;;;;;;;;;;5074234;28;20410;-85
2021/04/29 08:11:52;;;;;;;8.93;5.87;;;;;;;;;;5074177;28;20469;-84
2021/04/29 08:14:18;;;;;;;8.80;5.90;;;;;;;;;;5074289;28;20418;-85
2021/04/29 08:19:47;;;;;;;8.10;5.73;;;;;;;;;;5076066;28;20528;-86
2021/04/29 08:22:13;;;;;;;7.07;5.90;;;;;;;;;;5083719;28;20884;-78
2021/04/29 08:24:39;;;;;;;6.93;6.33;;;;;;;;;;5077379;28;20493;-76
2021/04/29 08:27:05;;;;;;;7.53;5.70;;;;;;;;;;5078175;28;20839;-86
2021/04/29 08:29:31;;;;;;;7.93;5.80;;;;;;;;;;5074591;28;20426;-88
2021/04/29 08:35:01;;;;;;;7.13;6.43;;;;;;;;;;5076228;28;20463;-88
2021/04/29 08:37:27;;;;;;;7.23;6.53;;;;;;;;;;5076166;28;20421;-90
2021/04/29 08:39:53;;;;;;;9.60;7.03;;;;;;;;;;5084009;28;20414;-83
2021/04/29 08:42:19;;;;;;;6.80;5.93;;;;;;;;;;5074642;28;20885;-80
2021/04/29 08:44:45;;;;;;;7.43;6.63;;;;;;;;;;5074236;28;20462;-87
2021/04/29 08:50:15;;;;;;;9.50;6.13;;;;;;;;;;5073876;28;20405;-84
2021/04/29 08:52:41;;;;;;;11.80;7.00;;;;;;;;;;5077823;28;20577;-82
2021/04/29 08:55:07;;;;;;;8.90;7.07;;;;;;;;;;5082577;28;20444;-84
2021/04/29 08:57:33;;;;;;;7.70;5.80;;;;;;;;;;5093226;28;20414;-83
2021/04/29 08:59:59;;;;;;;11.20;7.03;;;;;;;;;;5074564;28;20823;-83
2021/04/29 09:05:32;;;;;;;9.30;6.90;;;;;;;;;;5073547;28;20589;-85
2021/04/29 09:07:59;;;;;;;9.60;6.17;;;;;;;;;;5073282;28;20893;-75
2021/04/29 09:10:29;;;;;;;9.27;6.50;;;;;;;;;;5072993;28;20468;-77
2021/04/29 09:12:56;;;;;;;7.70;6.93;;;;;;;;;;5073206;28;20436;-75
2021/04/29 09:15:23;;;;;;;8.77;7.90;;;;;;;;;;5073372;28;20415;-77
2021/04/29 09:18:04;;;;;;;8.57;5.70;;;;;;;;;;5073160;28;20434;-77
2021/04/29 09:20:30;;;;;;;7.23;6.53;;;;;;;;;;5073188;28;20901;-80
2021/04/29 09:23:02;;;;;;;7.57;6.00;;;;;;;;;;5072973;28;20551;-80
2021/04/29 09:25:29;;;;;;;10.90;7.20;;;;;;;;;;5073105;28;20473;-77
2021/04/29 09:27:55;;;;;;;8.67;6.43;;;;;;;;;;5072824;28;20497;-73
2021/04/29 09:30:24;;;;;;;6.93;6.10;;;;;;;;;;5072904;28;20469;-77
2021/04/29 09:32:51;;;;;;;9.20;6.87;;;;;;;;;;5073001;28;20430;-79
2021/04/29 09:35:18;;;;;;;11.23;7.23;;;;;;;;;;5072873;28;20417;-78
2021/04/29 09:37:44;;;;;;;8.43;6.67;;;;;;;;;;5072011;28;20902;-74
2021/04/29 09:40:13;;;;;;;7.70;7.00;;;;;;;;;;5072435;28;20421;-74
2021/04/29 09:42:39;;;;;;;8.67;6.20;;;;;;;;;;5072739;28;20521;-81
2021/04/29 09:45:17;;;;;;;9.57;8.00;;;;;;;;;;5074608;28;20884;-84
2021/04/29 09:50:48;;;;;;;6.13;5.50;;;;;;;;;;5074089;28;20417;-84
2021/04/29 09:53:15;;;;;;;7.40;5.60;;;;;;;;;;5075145;28;20475;-79
2021/04/29 09:55:44;;;;;;;5.57;5.03;;;;;;;;;;5073175;28;20409;-78
2021/04/29 09:58:17;;;;;;;6.70;6.10;;;;;;;;;;5072505;28;20415;-82
2021/04/29 10:00:43;;;;;;;6.50;6.00;;;;;;;;;;5072850;28;20414;-82
2021/04/29 10:03:10;;;;;;;7.00;6.10;;;;;;;;;;5072875;28;20804;-83
2021/04/29 10:05:38;;;;;;;7.80;6.20;;;;;;;;;;5072464;28;20627;-82
2021/04/29 10:08:05;;;;;;;6.70;6.00;;;;;;;;;;5072224;28;20418;-83
2021/04/29 10:10:35;;;;;;;9.27;6.73;;;;;;;;;;5072991;28;20477;-75
2021/04/29 10:13:03;;;;;;;12.37;7.10;;;;;;;;;;5072620;28;20429;-77
2021/04/29 10:15:31;;;;;;;7.30;6.23;;;;;;;;;;5072167;28;20411;-76
2021/04/29 10:21:02;;;;;;;7.73;7.00;;;;;;;;;;5071851;28;20505;-85
2021/04/29 10:23:28;;;;;;;6.50;6.00;;;;;;;;;;5071622;28;20410;-84
2021/04/29 10:25:58;;;;;;;9.87;6.90;;;;;;;;;;5072027;28;20469;-85
2021/04/29 10:28:34;;;;;;;8.10;7.30;;;;;;;;;;5072231;28;20413;-85
2021/04/29 10:31:02;;;;;;;7.03;6.43;;;;;;;;;;5071623;28;20484;-82
2021/04/29 10:33:35;;;;;;;7.90;7.10;;;;;;;;;;5071268;28;20402;-86
2021/04/29 10:36:01;;;;;;;8.27;6.80;;;;;;;;;;5071592;28;20420;-77
2021/04/29 10:38:29;;;;;;;7.83;6.80;;;;;;;;;;5071159;28;20489;-77
2021/04/29 10:40:56;;;;;;;8.00;6.70;;;;;;;;;;5071637;28;20441;-76
2021/04/29 10:43:36;;;;;;;7.40;6.70;;;;;;;;;;5071545;28;20498;-83
2021/04/29 10:46:04;;;;;;;6.40;5.80;;;;;;;;;;5071771;28;20430;-84
2021/04/29 10:48:31;;;;;;;7.30;6.27;;;;;;;;;;5070996;28;20442;-82
2021/04/29 10:51:05;;;;;;;7.07;6.30;;;;;;;;;;5071568;28;20528;-83
2021/04/29 10:53:32;;;;;;;7.57;6.70;;;;;;;;;;5070992;28;20410;-80
2021/04/29 10:56:02;;;;;;;7.20;6.30;;;;;;;;;;5071668;28;20417;-83
2021/04/29 10:58:28;;;;;;;8.00;7.00;;;;;;;;;;5071608;28;20410;-79
2021/04/29 11:00:59;;;;;;;8.70;6.53;;;;;;;;;;5074155;28;20742;-82
2021/04/29 11:06:30;;;;;;;6.80;6.20;;;;;;;;;;5071561;28;20475;-76
2021/04/29 11:08:56;;;;;;;7.20;6.60;;;;;;;;;;5075092;28;20410;-80
2021/04/29 11:11:24;;;;;;;8.33;5.93;;;;;;;;;;5074714;28;20466;-84
2021/04/29 11:14:17;;;;;;;6.17;5.00;;;;;;;;;;5091607;28;20417;-80
2021/04/29 11:16:50;;;;;;;5.50;4.93;;;;;;;;;;5070493;28;20442;-85
2021/04/29 11:19:35;;;;;;;5.00;4.53;;;;;;;;;;5071285;28;20808;-82
2021/04/29 11:22:04;;;;;;;6.30;4.90;;;;;;;;;;5070870;28;20425;-77
2021/04/29 11:24:33;;;;;;;4.70;4.30;;;;;;;;;;5071125;28;20515;-85
2021/04/29 11:26:59;;;;;;;4.97;3.97;;;;;;;;;;5070051;28;20494;-84
2021/04/29 11:29:35;;;;;;;7.30;4.47;;;;;;;;;;5071174;28;20398;-85
2021/04/29 11:32:01;;;;;;;9.80;4.17;;;;;;;;;;5071227;28;20467;-76
2021/04/29 11:34:27;;;;;;;4.87;4.43;;;;;;;;;;5069031;28;20920;-78
2021/04/29 11:36:59;;;;;;;4.93;4.43;;;;;;;;;;5070581;28;20450;-82
2021/04/29 11:39:25;;;;;;;5.70;4.30;;;;;;;;;;5069564;28;20422;-75
2021/04/29 11:41:51;;;;;;;6.53;4.23;;;;;;;;;;5071473;28;20418;-84
2021/04/29 11:44:17;;;;;;;4.77;4.20;;;;;;;;;;5071328;28;20458;-82
2021/04/29 11:46:43;;;;;;;5.63;4.07;;;;;;;;;;5070859;28;20926;-84
2021/04/29 11:49:09;;;;;;;9.63;4.70;;;;;;;;;;5070762;28;20456;-84
2021/04/29 11:51:44;;;;;;;4.17;3.77;;;;;;;;;;5070432;28;20803;-78
2021/04/29 11:54:10;;;;;;;6.50;4.50;;;;;;;;;;5070835;28;20449;-82
2021/04/29 11:56:43;;;;;;;5.00;3.80;;;;;;;;;;5070815;28;20405;-83
2021/04/29 11:59:13;;;;;;;7.20;5.03;;;;;;;;;;5069853;28;20430;-85
2021/04/29 12:01:39;;;;;;;4.87;3.87;;;;;;;;;;5073763;28;20465;-85
2021/04/29 12:07:09;;;;;;;7.23;3.63;;;;;;;;;;5074825;28;20756;-84
2021/04/29 12:09:35;;;;;;;5.73;4.73;;;;;;;;;;5074755;28;20418;-84
2021/04/29 12:12:12;;;;;;;4.30;3.60;;;;;;;;;;5076971;28;20496;-79
2021/04/29 12:14:38;;;;;;;3.30;3.00;;;;;;;;;;5075936;28;20497;-78
2021/04/29 12:17:05;;;;;;;6.17;3.67;;;;;;;;;;5075674;28;20457;-81
2021/04/29 12:19:31;;;;;;;6.97;3.80;;;;;;;;;;5074352;28;20930;-78
2021/04/29 12:21:58;;;;;;;4.77;4.07;;;;;;;;;;5075153;28;20426;-78
2021/04/29 12:24:27;;;;;;;4.53;4.13;;;;;;;;;;5074954;28;20552;-82
2021/04/29 12:26:53;;;;;;;4.20;3.80;;;;;;;;;;5075222;28;20424;-75
2021/04/29 12:29:23;;;;;;;7.37;3.73;;;;;;;;;;5075158;28;20514;-80
2021/04/29 12:31:56;;;;;;;4.80;3.33;;;;;;;;;;5075105;28;20778;-77
2021/04/29 12:37:25;;;;;;;4.93;3.30;;;;;;;;;;5073853;28;20514;-76
2021/04/29 12:39:51;;;;;;;3.30;3.00;;;;;;;;;;5074239;28;20512;-79
2021/04/29 12:42:19;;;;;;;3.87;3.07;;;;;;;;;;5074202;28;20427;-77
2021/04/29 12:44:47;;;;;;;6.17;3.80;;;;;;;;;;5074144;28;20520;-79
2021/04/29 12:47:21;;;;;;;6.10;3.73;;;;;;;;;;5073760;28;20408;-79
2021/04/29 12:50:03;;;;;;;6.60;4.07;;;;;;;;;;5073899;28;20401;-83
2021/04/29 12:52:29;;;;;;;3.17;2.93;;;;;;;;;;5073831;28;20554;-75
2021/04/29 12:54:56;;;;;;;4.10;3.70;;;;;;;;;;5073839;28;20411;-84
2021/04/29 12:57:28;;;;;;;3.67;3.37;;;;;;;;;;5074066;28;20505;-81
2021/04/29 12:59:57;;;;;;;4.10;3.47;;;;;;;;;;5074260;28;20796;-81
2021/04/29 13:02:25;;;;;;;3.63;2.73;;;;;;;;;;5073884;28;20421;-78
2021/04/29 13:05:01;;;;;;;3.07;2.83;;;;;;;;;;5073180;28;20450;-76
2021/04/29 13:07:28;;;;;;;4.30;3.57;;;;;;;;;;5073502;28;20414;-81
2021/04/29 13:09:54;;;;;;;4.43;4.03;;;;;;;;;;5073562;28;20818;-83
2021/04/29 13:12:21;;;;;;;4.10;3.80;;;;;;;;;;5072645;28;20947;-83
2021/04/29 13:14:47;;;;;;;3.93;3.67;;;;;;;;;;5073805;28;20439;-86
2021/04/29 13:17:15;;;;;;;6.67;3.67;;;;;;;;;;5073539;28;20419;-83
2021/04/29 13:22:44;;;;;;;4.60;4.20;;;;;;;;;;5073495;28;20975;-75
2021/04/29 13:25:13;;;;;;;5.30;4.67;;;;;;;;;;5074388;28;20527;-83
2021/04/29 13:27:39;;;;;;;6.57;4.27;;;;;;;;;;5079328;28;20407;-82
2021/04/29 13:30:06;;;;;;;4.53;4.07;;;;;;;;;;5092208;28;20410;-80
2021/04/29 13:32:32;;;;;;;4.47;4.07;;;;;;;;;;5080432;28;20422;-82
2021/04/29 13:35:02;;;;;;;5.97;4.13;;;;;;;;;;5074011;28;20406;-84
2021/04/29 13:37:28;;;;;;;4.77;4.37;;;;;;;;;;5071860;28;20421;-82
2021/04/29 13:39:55;;;;;;;5.73;4.73;;;;;;;;;;5072954;28;20833;-85
2021/04/29 13:42:21;;;;;;;6.87;4.23;;;;;;;;;;5073103;28;20788;-84
2021/04/29 13:44:47;;;;;;;5.30;4.80;;;;;;;;;;5072973;28;20531;-84
2021/04/29 13:47:14;;;;;;;6.27;4.70;;;;;;;;;;5072754;28;20490;-81
2021/04/29 13:52:43;;;;;;;5.40;3.70;;;;;;;;;;5071595;28;21197;-78
2021/04/29 13:55:09;;;;;;;3.10;2.87;;;;;;;;;;5072302;28;20410;-84
2021/04/29 13:57:35;;;;;;;2.70;2.50;;;;;;;;;;5072097;28;20429;-82
2021/04/29 14:00:04;;;;;;;2.77;2.20;;;;;;;;;;5071950;28;20501;-77
2021/04/29 14:02:30;;;;;;;2.20;2.00;;;;;;;;;;5071794;28;20425;-81
2021/04/29 14:04:56;;;;;;;2.63;2.43;;;;;;;;;;5072178;28;20469;-79
2021/04/29 14:07:22;;;;;;;3.37;3.07;;;;;;;;;;5072956;28;20422;-84
2021/04/29 14:09:48;;;;;;;2.90;2.43;;;;;;;;;;5071286;28;20418;-85
2021/04/29 14:12:14;;;;;;;4.50;4.10;;;;;;;;;;5071528;28;20488;-82
2021/04/29 14:14:41;;;;;;;3.77;3.47;;;;;;;;;;5071954;28;20845;-76
2021/04/29 14:17:07;;;;;;;3.90;3.60;;;;;;;;;;5072123;28;20398;-83
2021/04/29 14:22:37;;;;;;;4.90;4.20;;;;;;;;;;5071966;28;20919;-83
2021/04/29 14:25:03;;;;;;;6.00;4.23;;;;;;;;;;5073871;28;20956;-79
2021/04/29 14:27:30;;;;;;;4.40;4.00;;;;;;;;;;5073387;28;20402;-82
2021/04/29 14:29:56;;;;;;;4.57;4.17;;;;;;;;;;5072774;28;20764;-76
2021/04/29 14:32:22;;;;;;;4.50;4.10;;;;;;;;;;5073051;28;20410;-80
2021/04/29 14:37:51;;;;;;;7.20;3.83;;;;;;;;;;5071801;28;20792;-77
2021/04/29 14:40:18;;;;;;;3.60;3.30;;;;;;;;;;5071550;28;20474;-75
2021/04/29 14:42:44;;;;;;;3.97;3.57;;;;;;;;;;5071230;28;20414;-76
2021/04/29 14:45:10;;;;;;;8.43;3.50;;;;;;;;;;5071724;28;20470;-83
2021/04/29 14:47:36;;;;;;;4.30;4.00;;;;;;;;;;5071289;28;20424;-77
2021/04/29 14:53:10;;;;;;;3.33;3.03;;;;;;;;;;5071946;28;20433;-77
2021/04/29 14:55:36;;;;;;;6.20;3.70;;;;;;;;;;5072554;28;20819;-83
2021/04/29 14:58:03;;;;;;;5.33;3.63;;;;;;;;;;5073025;28;20414;-80
2021/04/29 15:00:32;;;;;;;4.07;3.23;;;;;;;;;;5074489;28;20406;-81
2021/04/29 15:02:58;;;;;;;3.73;3.43;;;;;;;;;;5072397;28;20414;-85
2021/04/29 15:05:24;;;;;;;5.23;3.60;;;;;;;;;;5075754;28;20469;-82
2021/04/29 15:07:51;;;;;;;4.87;4.10;;;;;;;;;;5074446;28;20908;-77
2021/04/29 15:10:17;;;;;;;5.03;3.87;;;;;;;;;;5072329;28;20482;-86
2021/04/29 15:12:45;;;;;;;4.03;3.23;;;;;;;;;;5073886;28;20552;-86
2021/04/29 15:15:13;;;;;;;4.10;3.70;;;;;;;;;;5072621;28;20514;-85
2021/04/29 15:17:39;;;;;;;3.97;3.23;;;;;;;;;;5071447;28;20592;-83
2021/04/29 15:23:08;;;;;;;3.80;3.50;;;;;;;;;;5070860;28;20413;-80
2021/04/29 15:25:34;;;;;;;4.03;3.57;;;;;;;;;;5071771;28;20971;-79
2021/04/29 15:28:00;;;;;;;5.07;4.57;;;;;;;;;;5072266;28;20410;-76
2021/04/29 15:30:26;;;;;;;3.87;3.57;;;;;;;;;;5072694;28;20463;-86
2021/04/29 15:32:52;;;;;;;5.00;3.53;;;;;;;;;;5072991;28;20394;-84
2021/04/29 15:38:22;;;;;;;3.97;3.30;;;;;;;;;;5084745;28;20441;-78
2021/04/29 15:40:48;;;;;;;4.40;3.53;;;;;;;;;;5088610;28;20425;-82
2021/04/29 15:43:14;;;;;;;2.93;2.57;;;;;;;;;;5078315;28;20571;-81
2021/04/29 15:45:40;;;;;;;3.10;2.20;;;;;;;;;;5075514;28;20501;-86
2021/04/29 15:48:06;;;;;;;2.60;2.40;;;;;;;;;;5074379;28;20493;-79
2021/04/29 15:53:35;;;;;;;2.87;2.67;;;;;;;;;;5074331;28;20457;-80
2021/04/29 15:56:02;;;;;;;10.30;3.40;;;;;;;;;;5074893;28;20413;-80
2021/04/29 15:58:28;;;;;;;3.20;2.63;;;;;;;;;;5074368;28;20408;-78
2021/04/29 16:00:54;;;;;;;3.10;2.80;;;;;;;;;;5074604;28;20483;-78
2021/04/29 16:03:20;;;;;;;4.70;3.37;;;;;;;;;;5074116;28;20410;-79
2021/04/29 16:05:46;;;;;;;2.40;1.90;;;;;;;;;;5074083;28;20470;-80
2021/04/29 16:08:12;;;;;;;2.37;2.20;;;;;;;;;;5074173;28;20437;-83
2021/04/29 16:10:38;;;;;;;7.70;2.80;;;;;;;;;;5074216;28;20458;-86
2021/04/29 16:13:04;;;;;;;4.53;2.40;;;;;;;;;;5073535;28;20425;-83
2021/04/29 16:15:32;;;;;;;3.37;2.20;;;;;;;;;;5074456;28;20422;-78
2021/04/29 16:17:58;;;;;;;5.03;2.70;;;;;;;;;;5074655;28;20436;-84
2021/04/29 16:23:27;;;;;;;2.60;2.40;;;;;;;;;;5073863;28;20400;-85
2021/04/29 16:25:53;;;;;;;3.67;2.60;;;;;;;;;;5074248;28;20818;-80
2021/04/29 16:28:19;;;;;;;3.00;2.27;;;;;;;;;;5075290;28;20409;-76
2021/04/29 16:30:45;;;;;;;3.03;2.50;;;;;;;;;;5074328;28;20410;-75
2021/04/29 16:33:13;;;;;;;2.40;2.20;;;;;;;;;;5073446;28;20449;-79
2021/04/29 16:38:42;;;;;;;3.07;2.87;;;;;;;;;;5073073;28;20417;-80
2021/04/29 16:41:08;;;;;;;4.83;2.57;;;;;;;;;;5073128;28;20772;-83
2021/04/29 16:43:34;;;;;;;2.97;2.77;;;;;;;;;;5072966;28;20467;-80
2021/04/29 16:46:01;;;;;;;3.63;2.57;;;;;;;;;;5073744;28;20568;-82
2021/04/29 16:48:27;;;;;;;6.43;3.27;;;;;;;;;;5073066;28;20467;-78
2021/04/29 16:53:56;;;;;;;3.10;2.67;;;;;;;;;;5073717;28;20498;-74